Time;durP1;ratioP1;P1;durP2;ratioP2;P2;SDS_P1;SDS_P2;PMS_P1;PMS_P2;Temp;Humidity;BMP_temperature;BMP_pressure;BME280_temperature;BME280_humidity;BME280_pressure;Samples;Min_cycle;Max_cycle;Signal;HPM_P1;HPM_P2
2021/12/15 00:00:01;;;;;;;32.27;14.50;;;11.80;58.40;;;;;;5076984;28;20483;-86
2021/12/15 00:02:29;;;;;;;27.43;13.87;;;11.80;58.40;;;;;;5058772;28;21013;-86
2021/12/15 00:04:56;;;;;;;24.40;13.47;;;11.70;58.50;;;;;;5080320;28;20472;-87
2021/12/15 00:07:25;;;;;;;23.27;13.37;;;11.60;58.90;;;;;;5097193;28;20457;-86
2021/12/15 00:09:53;;;;;;;24.87;13.43;;;11.60;59.00;;;;;;5048310;28;20485;-86
2021/12/15 00:12:22;;;;;;;23.27;13.10;;;11.60;58.90;;;;;;5066429;28;20456;-86
2021/12/15 00:14:49;;;;;;;28.37;14.70;;;11.60;59.50;;;;;;5079513;28;20593;-86
2021/12/15 00:17:16;;;;;;;28.67;13.40;;;11.60;59.00;;;;;;5076037;28;20450;-87
2021/12/15 00:19:44;;;;;;;22.43;13.57;;;11.60;59.10;;;;;;5075900;28;20474;-86
2021/12/15 00:22:12;;;;;;;23.87;10.77;;;11.60;59.00;;;;;;5059853;28;20909;-86
2021/12/15 00:24:39;;;;;;;25.27;12.50;;;11.60;59.00;;;;;;5063732;28;20460;-86
2021/12/15 00:27:08;;;;;;;20.17;12.27;;;11.50;58.80;;;;;;5097503;28;20463;-86
2021/12/15 00:29:35;;;;;;;24.00;12.10;;;11.50;59.20;;;;;;5078589;28;21006;-87
2021/12/15 00:32:04;;;;;;;25.27;12.67;;;11.40;59.10;;;;;;5064436;28;20458;-86
2021/12/15 00:34:33;;;;;;;20.17;11.60;;;11.50;59.10;;;;;;5081501;28;20459;-86
2021/12/15 00:37:00;;;;;;;25.27;12.93;;;11.50;58.90;;;;;;5094093;28;20462;-84
2021/12/15 00:39:29;;;;;;;24.07;12.00;;;11.50;58.80;;;;;;5077216;28;20529;-87
2021/12/15 00:41:57;;;;;;;21.00;10.67;;;11.50;58.70;;;;;;5044174;28;20447;-86
2021/12/15 00:44:26;;;;;;;18.57;10.07;;;11.50;58.60;;;;;;5091748;27;20466;-87
2021/12/15 00:46:53;;;;;;;21.13;11.60;;;11.50;59.10;;;;;;5075062;28;20468;-86
2021/12/15 00:49:22;;;;;;;23.10;11.80;;;11.60;58.50;;;;;;5075827;28;20509;-84
2021/12/15 00:51:51;;;;;;;19.10;10.23;;;11.40;58.90;;;;;;5060227;28;20440;-87
2021/12/15 00:54:18;;;;;;;25.80;13.43;;;11.40;59.00;;;;;;5083008;28;20803;-86
2021/12/15 00:56:46;;;;;;;24.27;11.33;;;11.40;59.00;;;;;;5078069;28;20492;-86
2021/12/15 00:59:13;;;;;;;24.00;12.73;;;11.40;58.90;;;;;;5075716;28;20498;-86
2021/12/15 01:01:42;;;;;;;26.10;12.00;;;11.40;59.00;;;;;;5065968;27;20494;-87
2021/12/15 01:04:12;;;;;;;26.90;12.30;;;11.30;58.70;;;;;;5061707;28;20965;-87
2021/12/15 01:06:41;;;;;;;20.53;10.03;;;11.20;59.00;;;;;;5093910;28;20482;-86
2021/12/15 01:09:12;;;;;;;24.67;11.93;;;11.20;59.00;;;;;;5082493;28;20482;-87
2021/12/15 01:12:07;;;;;;;22.33;12.00;;;11.20;59.50;;;;;;5076636;28;20439;-86
2021/12/15 01:20:13;;;;;;;20.87;10.30;;;11.20;58.70;;;;;;5077776;28;20897;-86
2021/12/15 01:22:43;;;;;;;26.23;13.10;;;11.20;58.70;;;;;;5074128;28;20452;-87
2021/12/15 01:25:12;;;;;;;20.67;11.70;;;11.20;58.70;;;;;;5092226;28;20481;-87
2021/12/15 01:27:40;;;;;;;22.20;11.17;;;11.20;58.70;;;;;;5067879;28;20458;-86
2021/12/15 01:30:10;;;;;;;24.47;12.00;;;11.20;58.60;;;;;;5076373;28;20960;-87
2021/12/15 01:32:39;;;;;;;20.77;11.93;;;11.20;58.50;;;;;;5075901;28;20463;-87
2021/12/15 01:35:06;;;;;;;20.77;10.50;;;11.30;58.60;;;;;;5074486;28;20444;-87
2021/12/15 01:37:34;;;;;;;22.33;10.07;;;11.30;58.60;;;;;;5082533;28;20450;-86
2021/12/15 01:40:01;;;;;;;20.33;9.83;;;11.30;58.50;;;;;;5060435;28;20486;-87
2021/12/15 01:42:31;;;;;;;24.67;10.07;;;11.30;58.40;;;;;;5093574;28;20809;-87
2021/12/15 01:47:45;;;;;;;20.43;9.07;;;11.30;58.60;;;;;;5065885;28;20546;-86
2021/12/15 01:50:13;;;;;;;16.93;8.07;;;11.30;58.60;;;;;;5092655;28;20467;-86
2021/12/15 01:52:43;;;;;;;17.90;9.80;;;11.30;58.60;;;;;;5081760;28;20513;-86
2021/12/15 01:55:12;;;;;;;15.80;8.70;;;11.30;58.60;;;;;;5065393;28;20435;-86
2021/12/15 01:57:40;;;;;;;19.43;10.13;;;11.10;58.90;;;;;;5074657;28;20521;-88
2021/12/15 02:00:10;;;;;;;17.70;8.57;;;11.20;59.00;;;;;;5074963;28;20576;-87
2021/12/15 02:02:41;;;;;;;16.77;8.53;;;11.30;58.90;;;;;;5091459;28;20587;-86
2021/12/15 02:05:11;;;;;;;14.07;8.60;;;11.30;58.70;;;;;;5046041;28;20827;-86
2021/12/15 02:07:38;;;;;;;17.60;9.63;;;11.30;58.70;;;;;;5080563;28;20451;-86
2021/12/15 02:10:07;;;;;;;18.27;10.10;;;11.30;58.70;;;;;;5094310;28;20502;-87
2021/12/15 02:12:39;;;;;;;16.43;9.30;;;11.30;58.80;;;;;;5083844;28;20459;-86
2021/12/15 02:15:12;;;;;;;19.00;8.60;;;11.20;58.80;;;;;;5064608;28;20475;-86
2021/12/15 02:17:40;;;;;;;17.40;9.90;;;11.10;59.10;;;;;;5078008;28;20853;-86
2021/12/15 02:20:11;;;;;;;20.00;10.27;;;11.00;59.20;;;;;;5077710;28;20505;-86
2021/12/15 02:22:41;;;;;;;25.83;12.37;;;11.10;58.90;;;;;;5071518;28;20459;-88
2021/12/15 02:25:12;;;;;;;22.13;11.33;;;11.10;58.80;;;;;;5057945;28;20454;-86
2021/12/15 02:27:39;;;;;;;20.13;10.33;;;11.20;58.80;;;;;;5089503;28;20850;-87
2021/12/15 02:30:23;;;;;;;18.47;10.73;;;11.10;58.40;;;;;;5077851;28;20833;-86
2021/12/15 02:33:02;;;;;;;21.53;11.13;;;10.80;59.00;;;;;;5081096;28;20558;-86
2021/12/15 02:38:17;;;;;;;21.40;10.40;;;10.80;58.90;;;;;;5081301;28;20454;-87
2021/12/15 02:40:45;;;;;;;30.07;10.57;;;10.90;58.80;;;;;;5082912;28;20479;-87
2021/12/15 02:43:12;;;;;;;16.87;10.77;;;10.90;58.70;;;;;;5097256;28;20459;-88
2021/12/15 02:45:40;;;;;;;15.70;9.03;;;11.00;58.70;;;;;;5101191;28;20465;-86
2021/12/15 02:48:07;;;;;;;16.10;8.33;;;11.00;58.60;;;;;;5059325;28;20972;-88
2021/12/15 02:50:36;;;;;;;14.30;8.83;;;11.10;58.40;;;;;;5077324;28;20543;-88
2021/12/15 02:53:05;;;;;;;15.57;8.67;;;11.10;58.50;;;;;;5076136;28;20443;-87
2021/12/15 02:55:34;;;;;;;31.63;10.73;;;11.00;58.50;;;;;;5078341;28;20466;-87
2021/12/15 02:58:01;;;;;;;18.70;9.20;;;11.00;58.80;;;;;;5096940;28;20458;-87
2021/12/15 03:00:36;;;;;;;19.67;10.20;;;10.90;59.20;;;;;;5079343;27;20471;-87
2021/12/15 03:03:30;;;;;;;21.03;9.60;;;10.90;59.40;;;;;;5078175;28;20451;-87
2021/12/15 03:06:04;;;;;;;19.53;9.20;;;11.00;59.30;;;;;;5050564;28;20469;-87
2021/12/15 03:08:49;;;;;;;20.43;9.50;;;11.00;59.00;;;;;;5075851;28;21014;-86
2021/12/15 03:16:49;;;;;;;16.77;9.40;;;11.20;59.00;;;;;;5061641;28;20440;-82
2021/12/15 03:19:16;;;;;;;21.80;10.30;;;11.10;59.00;;;;;;5093625;28;20475;-86
2021/12/15 03:21:43;;;;;;;16.77;9.80;;;11.10;58.90;;;;;;5081212;28;20553;-85
2021/12/15 03:24:15;;;;;;;16.70;8.40;;;11.20;59.00;;;;;;5096123;28;20458;-85
2021/12/15 03:26:51;;;;;;;18.90;9.03;;;11.20;58.90;;;;;;5062293;28;20467;-86
2021/12/15 03:35:02;;;;;;;21.87;10.10;;;11.20;59.20;;;;;;5074175;28;20820;-83
2021/12/15 03:37:31;;;;;;;17.07;9.10;;;11.30;59.20;;;;;;5093986;27;20454;-87
2021/12/15 03:40:01;;;;;;;18.60;9.30;;;11.30;59.20;;;;;;5095291;28;20478;-84
2021/12/15 03:42:34;;;;;;;19.67;9.57;;;11.30;59.30;;;;;;5095544;28;20463;-86
2021/12/15 03:45:02;;;;;;;22.40;11.33;;;11.30;59.30;;;;;;5093756;27;20542;-86
2021/12/15 03:47:33;;;;;;;17.33;9.10;;;11.30;59.30;;;;;;5076323;28;20674;-86
2021/12/15 03:50:04;;;;;;;21.07;10.60;;;11.30;59.20;;;;;;5077353;28;20493;-86
2021/12/15 03:52:31;;;;;;;19.07;8.57;;;11.30;59.10;;;;;;5073492;28;20488;-86
2021/12/15 03:54:58;;;;;;;18.30;10.30;;;11.40;59.10;;;;;;5094674;27;20507;-87
2021/12/15 03:57:25;;;;;;;19.60;9.67;;;11.30;59.00;;;;;;5079409;28;20455;-86
2021/12/15 03:59:56;;;;;;;17.40;11.30;;;11.40;59.10;;;;;;5062747;28;20456;-86
2021/12/15 04:02:24;;;;;;;17.50;9.97;;;11.40;59.00;;;;;;5084845;28;20474;-86
2021/12/15 04:04:51;;;;;;;26.10;11.20;;;11.40;58.90;;;;;;5093539;28;20981;-86
2021/12/15 04:07:20;;;;;;;23.20;11.57;;;11.30;58.90;;;;;;5078690;28;20486;-86
2021/12/15 04:09:49;;;;;;;18.87;10.03;;;11.30;59.00;;;;;;5047945;28;20486;-85
2021/12/15 04:12:16;;;;;;;27.33;11.20;;;11.20;59.10;;;;;;5077200;27;20459;-86
2021/12/15 04:14:44;;;;;;;27.23;11.80;;;11.30;59.10;;;;;;5093553;28;20466;-87
2021/12/15 04:17:29;;;;;;;24.73;13.67;;;11.30;59.10;;;;;;5079126;28;21185;-86
2021/12/15 04:20:00;;;;;;;20.50;11.23;;;11.30;59.10;;;;;;5072011;28;20979;-87
2021/12/15 04:22:27;;;;;;;18.43;10.40;;;11.30;59.20;;;;;;5076753;28;20990;-86
2021/12/15 04:24:56;;;;;;;24.53;13.37;;;11.30;59.10;;;;;;5094962;28;20489;-86
2021/12/15 04:27:24;;;;;;;23.70;11.73;;;11.40;59.00;;;;;;5080684;28;20463;-85
2021/12/15 04:29:52;;;;;;;30.23;12.60;;;11.40;58.90;;;;;;5081044;28;20578;-86
2021/12/15 04:32:29;;;;;;;22.90;11.53;;;11.40;58.80;;;;;;5094447;28;20450;-88
2021/12/15 04:34:56;;;;;;;35.30;15.30;;;11.40;58.80;;;;;;5096517;27;21130;-86
2021/12/15 04:37:24;;;;;;;24.97;11.90;;;11.40;58.70;;;;;;5091288;28;20456;-86
2021/12/15 04:39:51;;;;;;;24.67;13.57;;;11.40;58.70;;;;;;5094132;28;20908;-87
2021/12/15 04:42:20;;;;;;;23.80;12.00;;;11.50;58.80;;;;;;5098696;28;20443;-86
2021/12/15 04:44:48;;;;;;;30.23;14.97;;;11.40;58.80;;;;;;5080035;28;20453;-86
2021/12/15 04:47:15;;;;;;;24.00;13.37;;;11.40;59.00;;;;;;5051328;28;20471;-86
2021/12/15 04:49:47;;;;;;;32.80;14.33;;;11.40;59.00;;;;;;5079319;28;20476;-87
2021/12/15 04:52:16;;;;;;;30.50;13.33;;;11.40;58.90;;;;;;5074489;28;20458;-86
2021/12/15 04:54:44;;;;;;;21.13;11.50;;;11.50;59.00;;;;;;5073020;28;20439;-86
2021/12/15 04:57:12;;;;;;;32.13;14.70;;;11.50;59.00;;;;;;5075674;28;20454;-86
2021/12/15 04:59:40;;;;;;;29.33;14.63;;;11.50;59.00;;;;;;5083109;28;20487;-86
2021/12/15 05:02:09;;;;;;;26.17;13.20;;;11.50;59.00;;;;;;5098960;28;20545;-86
2021/12/15 05:04:36;;;;;;;29.57;12.60;;;11.50;59.00;;;;;;5098805;28;20459;-86
2021/12/15 05:07:05;;;;;;;30.70;13.33;;;11.50;58.90;;;;;;5095545;28;20513;-85
2021/12/15 05:09:32;;;;;;;23.93;12.13;;;11.50;58.90;;;;;;5076251;28;20879;-86
2021/12/15 05:11:59;;;;;;;24.07;13.30;;;11.50;59.00;;;;;;5102198;27;20517;-87
2021/12/15 05:14:27;;;;;;;22.87;12.33;;;11.50;59.00;;;;;;5077607;28;20966;-86
2021/12/15 05:16:55;;;;;;;23.53;10.93;;;11.50;59.00;;;;;;5081232;28;20443;-86
2021/12/15 05:19:24;;;;;;;26.93;13.40;;;11.50;59.10;;;;;;5055256;28;20479;-85
2021/12/15 05:21:52;;;;;;;27.00;11.90;;;11.50;59.10;;;;;;5052850;28;20468;-86
2021/12/15 05:24:30;;;;;;;27.40;12.43;;;11.50;59.00;;;;;;5047966;28;20456;-86
2021/12/15 05:27:00;;;;;;;30.53;12.93;;;11.50;59.00;;;;;;5100515;28;20469;-85
2021/12/15 05:29:27;;;;;;;20.87;11.67;;;11.50;58.90;;;;;;5082480;28;20468;-87
2021/12/15 05:31:54;;;;;;;37.17;14.10;;;11.50;58.90;;;;;;5078843;28;20448;-84
2021/12/15 05:34:21;;;;;;;26.50;16.30;;;11.50;59.00;;;;;;5068346;28;20816;-87
2021/12/15 05:36:50;;;;;;;30.30;13.77;;;11.50;59.00;;;;;;5090181;28;20446;-87
2021/12/15 05:39:17;;;;;;;26.20;13.03;;;11.50;59.10;;;;;;5082845;28;21059;-87
2021/12/15 05:41:46;;;;;;;30.43;12.67;;;11.50;59.00;;;;;;5098407;28;20448;-87
2021/12/15 05:44:13;;;;;;;25.00;11.90;;;11.50;59.00;;;;;;5060706;28;20472;-87
2021/12/15 05:46:40;;;;;;;24.80;11.80;;;11.50;59.00;;;;;;5097100;28;20458;-88
2021/12/15 05:49:07;;;;;;;36.60;12.90;;;11.50;59.00;;;;;;5096394;28;20798;-86
2021/12/15 05:51:36;;;;;;;28.30;12.33;;;11.50;59.00;;;;;;5083759;28;20515;-88
2021/12/15 05:54:04;;;;;;;29.67;12.80;;;11.50;59.10;;;;;;5067069;28;20457;-87
2021/12/15 05:56:31;;;;;;;31.50;12.63;;;11.40;59.30;;;;;;5099191;28;20466;-87
2021/12/15 05:58:59;;;;;;;27.33;11.80;;;11.20;59.40;;;;;;5084944;28;20450;-87
2021/12/15 06:01:28;;;;;;;33.40;12.80;;;11.00;59.80;;;;;;5066647;28;20488;-87
2021/12/15 06:03:55;;;;;;;30.23;11.93;;;11.00;60.00;;;;;;5103558;28;21079;-86
2021/12/15 06:06:22;;;;;;;26.53;11.57;;;10.90;60.40;;;;;;5092017;28;20471;-85
2021/12/15 06:08:50;;;;;;;31.20;11.60;;;10.80;60.20;;;;;;5075433;28;20557;-85
2021/12/15 06:11:17;;;;;;;26.07;11.20;;;10.60;61.00;;;;;;5075863;27;20958;-86
2021/12/15 06:13:47;;;;;;;21.17;10.00;;;10.80;60.80;;;;;;5071702;28;20497;-86
2021/12/15 06:16:17;;;;;;;22.63;9.50;;;10.90;60.10;;;;;;5073411;28;20441;-86
2021/12/15 06:18:45;;;;;;;24.97;9.80;;;11.00;59.80;;;;;;5086170;28;20447;-85
2021/12/15 06:21:12;;;;;;;22.70;10.77;;;11.00;59.60;;;;;;5077334;28;21016;-83
2021/12/15 06:23:39;;;;;;;22.37;9.47;;;11.10;59.50;;;;;;5061725;28;20955;-86
2021/12/15 06:26:08;;;;;;;23.43;10.50;;;11.10;59.30;;;;;;5087696;28;20474;-85
2021/12/15 06:28:37;;;;;;;23.43;10.00;;;10.90;59.60;;;;;;5068950;28;20845;-86
2021/12/15 06:31:07;;;;;;;37.90;12.90;;;11.00;59.80;;;;;;5059306;28;20478;-87
2021/12/15 06:33:38;;;;;;;29.50;11.67;;;11.00;59.60;;;;;;5105489;28;20804;-88
2021/12/15 06:36:06;;;;;;;25.80;10.30;;;11.00;59.60;;;;;;5073242;28;20457;-86
2021/12/15 06:38:36;;;;;;;27.93;10.63;;;11.10;59.50;;;;;;5080877;28;20548;-86
2021/12/15 06:41:05;;;;;;;25.83;9.83;;;11.00;59.50;;;;;;5104813;28;20573;-87
2021/12/15 06:43:32;;;;;;;25.70;9.37;;;11.10;59.60;;;;;;5070830;28;20436;-86
2021/12/15 06:46:15;;;;;;;21.43;9.00;;;11.20;59.60;;;;;;5083472;28;20443;-87
2021/12/15 06:59:58;;;;;;;24.93;11.23;;;11.10;59.70;;;;;;5024770;28;20468;-87
2021/12/15 07:02:25;;;;;;;30.00;13.50;;;11.10;59.60;;;;;;5021685;28;20512;-86
2021/12/15 07:04:53;;;;;;;26.90;12.80;;;11.20;59.60;;;;;;5053820;28;20455;-87
2021/12/15 07:07:20;;;;;;;26.03;11.57;;;11.10;59.50;;;;;;5084181;28;20994;-86
2021/12/15 07:09:48;;;;;;;27.90;12.23;;;11.20;59.60;;;;;;5108558;27;20474;-85
2021/12/15 07:12:15;;;;;;;33.33;13.37;;;11.20;59.50;;;;;;5100369;27;20454;-86
2021/12/15 07:14:42;;;;;;;40.53;15.60;;;11.20;59.40;;;;;;5085087;28;20461;-85
2021/12/15 07:17:15;;;;;;;26.77;14.10;;;11.10;59.50;;;;;;5083522;28;20451;-86
2021/12/15 07:20:04;;;;;;;36.70;14.70;;;11.20;59.50;;;;;;5065374;28;20465;-86
2021/12/15 07:22:43;;;;;;;31.00;12.50;;;11.20;59.30;;;;;;5103398;28;20544;-85
2021/12/15 07:25:11;;;;;;;30.63;14.50;;;11.10;59.50;;;;;;5080107;28;20463;-86
2021/12/15 07:27:39;;;;;;;38.60;13.70;;;11.10;59.60;;;;;;5061458;28;20471;-85
2021/12/15 07:30:07;;;;;;;26.50;13.27;;;11.20;59.70;;;;;;5085033;28;20477;-86
2021/12/15 07:32:34;;;;;;;28.47;13.23;;;11.20;59.50;;;;;;5074600;28;20460;-86
2021/12/15 07:35:01;;;;;;;37.20;15.63;;;11.30;59.50;;;;;;5099598;28;20495;-86
2021/12/15 07:37:29;;;;;;;43.87;15.63;;;11.30;59.60;;;;;;5083253;28;20462;-87
2021/12/15 07:39:59;;;;;;;33.80;14.90;;;11.30;59.60;;;;;;5101471;28;20478;-86
2021/12/15 07:42:34;;;;;;;43.70;24.47;;;11.20;59.70;;;;;;5100105;28;20958;-86
2021/12/15 07:45:01;;;;;;;40.97;17.40;;;11.20;59.80;;;;;;5062820;28;20506;-86
2021/12/15 07:47:28;;;;;;;34.50;16.77;;;11.20;59.90;;;;;;5082887;28;21055;-86
2021/12/15 07:49:55;;;;;;;37.30;16.13;;;11.20;59.90;;;;;;5101639;27;20867;-84
2021/12/15 07:52:22;;;;;;;29.10;13.83;;;11.20;60.00;;;;;;5089662;28;20463;-86
2021/12/15 07:54:49;;;;;;;27.00;13.53;;;11.20;59.90;;;;;;5102542;27;20874;-87
2021/12/15 07:57:20;;;;;;;29.60;15.70;;;11.20;59.80;;;;;;5105531;27;20439;-87
2021/12/15 07:59:47;;;;;;;35.93;14.70;;;11.30;59.70;;;;;;5083855;28;20921;-87
2021/12/15 08:02:15;;;;;;;32.13;14.00;;;11.30;59.80;;;;;;5080627;28;20451;-87
2021/12/15 08:04:43;;;;;;;30.83;13.43;;;11.20;59.90;;;;;;5102454;27;21011;-86
2021/12/15 08:07:10;;;;;;;34.27;15.17;;;11.20;59.70;;;;;;5087829;28;20868;-86
2021/12/15 08:09:37;;;;;;;31.10;14.17;;;11.30;60.10;;;;;;5100368;28;20513;-86
2021/12/15 08:12:05;;;;;;;38.60;14.93;;;11.30;60.00;;;;;;5085649;28;20530;-87
2021/12/15 08:14:33;;;;;;;36.10;14.83;;;11.20;59.80;;;;;;5106167;27;20447;-87
2021/12/15 08:17:00;;;;;;;41.40;22.03;;;11.20;59.90;;;;;;5084548;27;20460;-85
2021/12/15 08:19:28;;;;;;;28.53;15.30;;;11.20;60.00;;;;;;5084073;28;20467;-86
2021/12/15 08:21:55;;;;;;;33.70;15.33;;;11.20;60.20;;;;;;5102797;27;20463;-87
2021/12/15 08:24:22;;;;;;;33.77;15.43;;;11.30;60.10;;;;;;5105238;27;20446;-88
2021/12/15 08:26:50;;;;;;;29.90;14.30;;;11.10;60.60;;;;;;5083858;28;20463;-86
2021/12/15 08:29:17;;;;;;;29.40;13.63;;;11.10;60.60;;;;;;5098440;27;20877;-86
2021/12/15 08:31:46;;;;;;;32.97;14.60;;;11.30;60.40;;;;;;5105777;27;20454;-87
2021/12/15 08:34:13;;;;;;;28.93;12.50;;;11.30;60.20;;;;;;5083176;28;20471;-86
2021/12/15 08:36:41;;;;;;;35.70;13.60;;;11.30;60.10;;;;;;5065116;28;20491;-86
2021/12/15 08:39:09;;;;;;;26.40;11.40;;;11.30;60.40;;;;;;5066001;28;20436;-86
2021/12/15 08:41:37;;;;;;;31.23;14.80;;;11.30;60.50;;;;;;5050938;28;20449;-86
2021/12/15 08:44:08;;;;;;;28.47;12.33;;;11.20;60.40;;;;;;5083076;28;20905;-86
2021/12/15 08:46:39;;;;;;;32.10;16.10;;;11.20;60.40;;;;;;5081236;28;20448;-86
2021/12/15 08:49:12;;;;;;;38.53;15.27;;;11.20;60.80;;;;;;5082316;28;20470;-86
2021/12/15 08:51:40;;;;;;;35.07;16.33;;;11.20;60.80;;;;;;5063104;28;20468;-86
2021/12/15 08:54:14;;;;;;;36.23;14.37;;;11.10;61.20;;;;;;5081006;28;20482;-87
2021/12/15 08:56:41;;;;;;;49.10;22.20;;;11.20;60.90;;;;;;5077215;28;20444;-86
2021/12/15 08:59:09;;;;;;;35.77;14.20;;;11.30;60.50;;;;;;5068980;28;21005;-86
2021/12/15 09:01:37;;;;;;;32.17;14.10;;;11.40;60.40;;;;;;5079852;28;20459;-86
2021/12/15 09:04:05;;;;;;;40.17;17.60;;;11.50;60.10;;;;;;5076192;28;20460;-83
2021/12/15 09:06:35;;;;;;;44.93;16.63;;;11.40;60.20;;;;;;5102221;28;20757;-87
2021/12/15 09:09:03;;;;;;;29.40;12.53;;;11.30;60.40;;;;;;5064679;28;21020;-86
2021/12/15 09:11:30;;;;;;;28.90;12.93;;;11.30;60.60;;;;;;5084501;28;20459;-86
2021/12/15 09:14:00;;;;;;;27.60;14.03;;;11.40;60.30;;;;;;5078541;28;20493;-86
2021/12/15 09:16:30;;;;;;;31.03;14.30;;;11.40;60.40;;;;;;5087352;28;20454;-86
2021/12/15 09:18:58;;;;;;;35.97;14.50;;;11.40;60.30;;;;;;5104502;28;20534;-87
2021/12/15 09:21:27;;;;;;;33.33;14.40;;;11.40;60.30;;;;;;5099602;28;20819;-87
2021/12/15 09:23:57;;;;;;;30.83;13.67;;;11.30;60.50;;;;;;5099260;28;20699;-86
2021/12/15 09:26:24;;;;;;;31.77;15.83;;;11.40;60.80;;;;;;5077448;28;20451;-86
2021/12/15 09:28:52;;;;;;;34.50;14.27;;;11.50;60.60;;;;;;5103020;28;20475;-84
2021/12/15 09:31:20;;;;;;;35.27;17.00;;;11.60;60.30;;;;;;5081924;28;20446;-86
2021/12/15 09:33:49;;;;;;;37.57;16.03;;;11.60;60.00;;;;;;5069001;28;21058;-86
2021/12/15 09:36:20;;;;;;;32.37;15.60;;;11.60;59.80;;;;;;5072615;28;20473;-86
2021/12/15 09:38:49;;;;;;;31.60;15.57;;;11.70;59.80;;;;;;5093204;28;21000;-87
2021/12/15 09:41:19;;;;;;;33.13;17.50;;;11.80;59.80;;;;;;5104577;27;20450;-86
2021/12/15 09:43:49;;;;;;;32.83;17.37;;;11.90;59.60;;;;;;5089973;27;20430;-87
2021/12/15 09:46:28;;;;;;;31.50;17.17;;;11.80;59.70;;;;;;5108857;27;20456;-87
2021/12/15 09:57:24;;;;;;;34.50;19.27;;;12.00;59.70;;;;;;5092278;28;20462;-86
2021/12/15 10:02:46;;;;;;;28.87;15.67;;;11.90;59.70;;;;;;5105434;28;20449;-86
2021/12/15 10:11:11;;;;;;;18.23;9.70;;;11.80;60.80;;;;;;5084425;28;20535;-85
2021/12/15 10:19:20;;;;;;;28.80;13.00;;;11.80;60.50;;;;;;5088474;28;20505;-85
2021/12/15 10:22:11;;;;;;;21.37;10.87;;;11.70;60.90;;;;;;5068566;28;20451;-86
2021/12/15 10:24:46;;;;;;;21.30;13.67;;;11.70;61.00;;;;;;5078182;28;21004;-86
2021/12/15 10:27:15;;;;;;;27.00;15.83;;;11.70;60.90;;;;;;5105595;27;20533;-86
2021/12/15 10:30:04;;;;;;;27.30;14.70;;;11.80;61.00;;;;;;5059147;28;20523;-87
2021/12/15 10:32:33;;;;;;;24.77;13.60;;;11.80;60.80;;;;;;5084788;28;20695;-86
2021/12/15 10:35:10;;;;;;;26.17;14.83;;;11.80;60.90;;;;;;5108337;28;20973;-86
2021/12/15 10:37:39;;;;;;;23.20;13.27;;;11.90;60.90;;;;;;5108043;28;20446;-86
2021/12/15 10:40:24;;;;;;;27.77;15.20;;;11.90;60.80;;;;;;5103415;28;20473;-85
2021/12/15 10:43:02;;;;;;;28.60;13.30;;;12.00;60.90;;;;;;5063077;28;20459;-86
2021/12/15 10:45:37;;;;;;;23.40;12.17;;;12.00;60.80;;;;;;5105863;28;20459;-86
2021/12/15 10:48:09;;;;;;;24.53;11.80;;;12.10;60.80;;;;;;5088565;28;20977;-86
2021/12/15 10:50:39;;;;;;;18.97;11.03;;;12.30;60.40;;;;;;5106718;27;20467;-86
2021/12/15 10:53:06;;;;;;;15.53;9.70;;;12.10;59.90;;;;;;5068928;27;20474;-86
2021/12/15 10:55:36;;;;;;;21.33;12.00;;;12.10;60.40;;;;;;5101339;28;20504;-86
2021/12/15 10:58:36;;;;;;;20.93;10.83;;;12.00;60.60;;;;;;5084301;28;20951;-86
2021/12/15 11:01:23;;;;;;;22.07;10.00;;;12.00;61.00;;;;;;5082045;28;21005;-86
2021/12/15 11:03:50;;;;;;;18.57;9.80;;;12.20;60.50;;;;;;5084896;28;21129;-86
2021/12/15 11:06:23;;;;;;;21.30;9.93;;;12.40;60.10;;;;;;5083938;28;20447;-86
2021/12/15 11:09:11;;;;;;;20.17;10.30;;;12.40;59.40;;;;;;5096139;27;20570;-86
2021/12/15 11:11:39;;;;;;;13.87;8.93;;;12.40;59.20;;;;;;5075134;28;20451;-87
2021/12/15 11:14:24;;;;;;;17.47;10.10;;;12.20;59.60;;;;;;5108910;27;20443;-84
2021/12/15 11:17:06;;;;;;;20.00;10.90;;;12.30;59.50;;;;;;5106625;28;20810;-87
2021/12/15 11:19:43;;;;;;;16.30;9.60;;;12.40;59.30;;;;;;5086568;28;20466;-86
2021/12/15 11:22:50;;;;;;;17.93;9.93;;;12.50;59.20;;;;;;5085489;28;20455;-86
2021/12/15 11:25:31;;;;;;;15.07;8.57;;;12.40;59.20;;;;;;5083208;28;20862;-87
2021/12/15 11:28:04;;;;;;;17.00;9.73;;;12.40;59.50;;;;;;5099388;28;20819;-86
2021/12/15 11:30:35;;;;;;;14.93;8.40;;;12.50;59.50;;;;;;5103897;28;20809;-87
2021/12/15 11:33:07;;;;;;;14.73;9.23;;;12.40;59.40;;;;;;5109251;27;20507;-86
2021/12/15 11:35:39;;;;;;;17.50;8.37;;;12.30;59.20;;;;;;5089616;28;20538;-88
2021/12/15 11:38:13;;;;;;;14.23;8.23;;;12.40;59.30;;;;;;5085648;28;20451;-86
2021/12/15 11:40:52;;;;;;;9.50;7.50;;;12.50;59.20;;;;;;5080805;28;21016;-86
2021/12/15 11:43:47;;;;;;;14.30;7.90;;;12.50;59.00;;;;;;5086555;28;20466;-86
2021/12/15 11:46:22;;;;;;;15.30;9.20;;;12.60;59.00;;;;;;5045207;28;20451;-86
2021/12/15 11:48:53;;;;;;;9.67;7.73;;;12.60;58.90;;;;;;5101519;28;20570;-86
2021/12/15 11:51:29;;;;;;;11.70;7.33;;;12.60;58.70;;;;;;5107250;27;20439;-85
2021/12/15 11:53:56;;;;;;;13.87;7.73;;;12.70;58.70;;;;;;5088646;28;20479;-86
2021/12/15 11:56:27;;;;;;;10.30;7.20;;;12.60;58.50;;;;;;5088350;28;20457;-86
2021/12/15 11:59:00;;;;;;;11.43;6.80;;;12.60;58.80;;;;;;5101053;28;20518;-85
2021/12/15 12:01:51;;;;;;;10.20;7.90;;;12.70;58.90;;;;;;5108099;27;20812;-86
2021/12/15 12:04:30;;;;;;;8.77;6.03;;;12.70;58.50;;;;;;5085944;28;20529;-86
2021/12/15 12:07:10;;;;;;;15.50;12.60;;;12.60;58.70;;;;;;5088850;27;20470;-84
2021/12/15 12:09:40;;;;;;;11.30;7.20;;;12.50;58.60;;;;;;5104893;28;20478;-86
2021/12/15 12:12:08;;;;;;;12.67;7.60;;;12.60;58.80;;;;;;5104875;28;20542;-86
2021/12/15 12:14:48;;;;;;;9.83;6.53;;;12.50;59.10;;;;;;5088139;28;20491;-86
2021/12/15 12:17:18;;;;;;;11.87;7.40;;;12.50;58.70;;;;;;5104297;28;20467;-86
2021/12/15 12:19:52;;;;;;;10.00;7.57;;;12.70;58.90;;;;;;5080609;28;20977;-87
2021/12/15 12:22:21;;;;;;;9.70;7.60;;;12.70;58.50;;;;;;5085534;28;20458;-85
2021/12/15 12:24:52;;;;;;;10.23;6.60;;;12.80;58.80;;;;;;5105359;28;20973;-85
2021/12/15 12:27:20;;;;;;;10.10;7.00;;;12.70;58.70;;;;;;5084234;28;20805;-86
2021/12/15 12:29:47;;;;;;;15.00;6.83;;;12.70;58.70;;;;;;5086131;28;20608;-87
2021/12/15 12:32:14;;;;;;;11.00;6.90;;;12.90;58.70;;;;;;5101482;28;20950;-87
2021/12/15 12:34:43;;;;;;;12.60;8.90;;;12.90;58.80;;;;;;5105456;28;20802;-87
2021/12/15 12:37:16;;;;;;;9.60;7.10;;;13.00;58.80;;;;;;5090847;28;20450;-86
2021/12/15 12:39:48;;;;;;;11.23;8.83;;;13.00;58.40;;;;;;5104425;28;20454;-86
2021/12/15 12:42:29;;;;;;;15.07;7.93;;;13.00;58.50;;;;;;5106630;27;20455;-87
2021/12/15 12:45:23;;;;;;;9.40;7.23;;;13.10;58.60;;;;;;5097029;28;20990;-84
2021/12/15 12:51:04;;;;;;;8.57;6.47;;;13.20;58.20;;;;;;5076190;28;20923;-86
2021/12/15 12:59:29;;;;;;;8.90;5.77;;;13.20;57.60;;;;;;5088543;28;20850;-87
2021/12/15 13:01:59;;;;;;;8.40;5.67;;;13.10;57.80;;;;;;5082994;28;20455;-84
2021/12/15 13:04:40;;;;;;;9.77;5.10;;;13.10;57.80;;;;;;5081668;28;20455;-87
2021/12/15 13:07:07;;;;;;;8.03;5.60;;;13.00;58.00;;;;;;5097828;28;20450;-87
2021/12/15 13:09:50;;;;;;;9.57;5.37;;;12.90;58.00;;;;;;5066736;28;20894;-87
2021/12/15 13:12:24;;;;;;;6.40;5.17;;;12.90;58.00;;;;;;5084206;28;20550;-86
2021/12/15 13:14:54;;;;;;;8.90;4.63;;;13.00;58.10;;;;;;5087515;28;20843;-88
2021/12/15 13:17:26;;;;;;;10.23;5.30;;;13.10;57.70;;;;;;5081090;28;20549;-87
2021/12/15 13:19:54;;;;;;;10.73;6.53;;;13.10;57.90;;;;;;5079561;28;20458;-86
2021/12/15 13:22:32;;;;;;;8.40;5.30;;;13.20;58.00;;;;;;5099030;28;20462;-86
2021/12/15 13:30:42;;;;;;;8.50;5.10;;;13.40;57.80;;;;;;5067633;28;20515;-87
2021/12/15 13:33:13;;;;;;;8.87;5.33;;;13.30;57.40;;;;;;5103631;28;20532;-87
2021/12/15 13:35:44;;;;;;;8.70;5.10;;;13.20;57.30;;;;;;5078944;28;20903;-87
2021/12/15 13:38:14;;;;;;;9.23;6.10;;;13.20;57.50;;;;;;5083750;28;20451;-87
2021/12/15 13:41:03;;;;;;;10.97;5.80;;;13.20;57.50;;;;;;5084250;28;20470;-87
2021/12/15 13:43:56;;;;;;;9.50;5.43;;;13.30;57.60;;;;;;5102988;28;20457;-86
2021/12/15 13:46:43;;;;;;;8.73;5.77;;;13.30;58.10;;;;;;5080294;28;20747;-87
2021/12/15 13:49:19;;;;;;;7.30;5.37;;;13.30;57.50;;;;;;5063999;28;20475;-87
2021/12/15 13:52:07;;;;;;;7.97;5.07;;;13.40;57.60;;;;;;5059034;28;20447;-89
2021/12/15 13:55:03;;;;;;;8.57;5.20;;;13.50;57.30;;;;;;5075782;28;20459;-87
2021/12/15 13:57:35;;;;;;;7.00;4.60;;;13.50;57.10;;;;;;5080757;28;20837;-87
2021/12/15 14:00:19;;;;;;;7.33;5.07;;;13.50;57.10;;;;;;5061388;28;20480;-88